Nearby METAR Reports

 

YMER - Merimbula Arpt, Australia
Distance from station: SE 12km
Updated: Thu, 27-Jun-2019 4:00am AEST
Clear
Clear
 Wind from SW
Wind: SW 9 km/h
Temperature: 5°C
Wind Chill: 3°C
Dew Point: 4°C
Humidity: 93%
Barometer: 1034 hPa
Clouds: Clear
Visibility: 10 km
2019/06/26 18:00 YMER 261800Z AUTO 23005KT 9999 // NCD 05/04 Q1034
YCOM - Cooma Snowy Mtns, Australia
Distance from station: NW 96km
Updated: Thu, 27-Jun-2019 4:00am AEST
Clear
Clear
 Wind from NE
Wind: NE 15 km/h
Temperature: -3°C
Wind Chill: -8°C
Dew Point: -3°C
Humidity: 100%
Barometer: 1034 hPa
Clouds: Clear
Visibility: 10 km
2019/06/26 18:00 YCOM 261800Z AUTO 04008KT 9999 // NCD M03/M03 Q1034
 
YSCB - Canberra (civ/Mi, Australia
Distance from station: NNW 182km
Updated: Thu, 27-Jun-2019 4:00am AEST
Overcast
Overcast
 Wind from calm
Wind: Calm
Temperature: 2°C
Dew Point: 2°C
Humidity: 100%
Barometer: 1035 hPa
Clouds: Overcast
Visibility: 10 km
Cloud details: Overcast 488 m
2019/06/26 18:00 YSCB 261800Z AUTO 00000KT 9999 // OVC016 02/02 Q1035
YSNW - Nowra (aus-Navy), Australia
Distance from station: NNE 219km
Updated: Thu, 27-Jun-2019 4:00am AEST
Mostly cloudy
Mostly cloudy
 Wind from SW
Wind: SW 6 km/h
Temperature: 10°C
Dew Point: 10°C
Humidity: 100%
Barometer: 1034 hPa
Clouds: Mostly cloudy
Visibility: 10 km
Cloud details: Partly cloudy 244 m
Mostly cloudy 396 m
Mostly cloudy 1676 m
2019/06/26 18:00 YSNW 261800Z AUTO 23003KT 9999 // SCT008 BKN013 BKN055 10/10 Q1034
 
YMAY - Albury Airport, Australia
Distance from station: WNW 271km
Updated: Thu, 27-Jun-2019 4:00am AEST
Clear
Clear
 Wind from calm
Wind: Calm
Temperature: 1°C
Dew Point: 0°C
Humidity: 93%
Barometer: 1034 hPa
Clouds: Clear
Visibility: 10 km
2019/06/26 18:00 YMAY 261800Z AUTO 00000KT 9999 // NCD 01/M00 Q1034
YSWG - Wagga Wagga(Cv/M, Australia
Distance from station: NW 283km
Updated: Thu, 27-Jun-2019 4:00am AEST
Clear
Clear
 Wind from ESE
Wind: ESE 15 km/h
Temperature: 6°C
Wind Chill: 3°C
Dew Point: 5°C
Humidity: 93%
Barometer: 1034 hPa
Clouds: Clear
Visibility: 10 km
2019/06/26 18:00 YSWG 261800Z AUTO 11008KT 9999 // NCD 06/05 Q1034
 
YWGT - Wangaratta Arp, Australia
Distance from station: W 317km
Updated: Thu, 27-Jun-2019 4:17am AEST
Clear
Clear
 Wind from SSW
Wind: SSW 6 km/h
Temperature: 0°C
Dew Point: 0°C
Humidity: 100%
Barometer: 1034 hPa
Clouds: Clear
Visibility: 6 km
2019/06/26 18:17 YWGT 261817Z AUTO 20003KT 6000 // NCD 00/00 Q1034
YSSY - Sydney Intl Airp, Australia
Distance from station: NNE 343km
Updated: Thu, 27-Jun-2019 4:00am AEST
Light rain, Showers, Mostly cloudy
Light rain, Showers, Mostly cloudy
 Wind from NW
Wind: NW 11 km/h
Temperature: 12°C
Dew Point: 11°C
Humidity: 94%
Barometer: 1034 hPa
Summary: Light rain, Showers
Clouds: Mostly cloudy
Visibility: 8 km
Cloud details: Few Clouds 152 m
Partly cloudy 762 m
Mostly cloudy 1524 m
2019/06/26 18:00 YSSY 261800Z 32006KT 290V360 8000 -SHRA FEW005 SCT025 BKN050 12/11 Q1034 NOSIG